Aeroporto :







RITROVATECI SU...

 
LOGIN :

Iscrizione | Disclaimer

   EN    FR    IT 

 









Sommario :    VFR   VFR Marginale   IFR   IFR Intensivo   IFR Molto Intensivo
Visibilità : 
Base nubi : 
>= 8 km
>= 3000ft
5 / 8 km
1000 / 3000 ft
1500m / 5 km
500 / 1000 ft
800 / 1500m
200 / 500 ft
< 800m
< 200 ft
Simboli :   Temporali  Nebbia  Neve Forte  Precipitazioni Forti  Vento > 20 kt






- Altitudine del aeroporto : 98 ft
- Codice IATA : JBQ


MDJB - El Higuero

ULTIMO METAR :
  • 041800Z 20008KT 9999 SCT020 34/23 Q1011 NOSIG

METARs OBSOLETI :
  • 041700Z 00000KT 9999 BKN020 31/23 Q1012 NOSIG

TAF TAF MDJB
Valido dal 04 a 18 ore il 05 a 18 ore UTC


041600Z 0418/0518 18010KT 9999 SCT020
PROB30
TEMPO 0420/0501 6000 ?TSRA FEW016CB BKN018
BECMG 0422/0500 00000KT



MetMap, La meteo Aeronautica in un colpo d'occhio ! - Copyright ORBIFLY Dicembre 2007 - Disclaimer

ORBIFLY MET'MAP TEAM :

Programmazione e sviluppo : Alexandra Zaïnal
Concezione : Baudouin d'Aumeries
Aiuto per la programmazione : Marc-Olivier Méhu
Supporto tecnico e logistico : Manuel Goepfert
Aiuto per la traduzione : Arnaldo La Scala

Contatto : metmap@orbifly.com




FONTI E CREDITI :

   NOAA